Time;durP1;ratioP1;P1;durP2;ratioP2;P2;SDS_P1;SDS_P2;PMS_P1;PMS_P2;Temp;Humidity;BMP_temperature;BMP_pressure;BME280_temperature;BME280_humidity;BME280_pressure;Samples;Min_cycle;Max_cycle;Signal;HPM_P1;HPM_P2
2021/11/28 00:01:48;;;;;;;1.57;1.47;;;15.40;99.90;;;;;;6210010;23;20412;-69
2021/11/28 00:04:21;;;;;;;3.60;1.23;;;15.40;99.90;;;;;;6211793;23;20415;-68
2021/11/28 00:06:58;;;;;;;1.93;1.83;;;15.40;99.90;;;;;;6208682;23;20405;-68
2021/11/28 00:09:42;;;;;;;1.50;1.40;;;15.40;99.90;;;;;;6207980;23;20415;-68
2021/11/28 00:12:25;;;;;;;1.30;1.20;;;15.40;99.90;;;;;;6208575;23;20814;-69
2021/11/28 00:14:57;;;;;;;2.00;1.00;;;15.40;99.90;;;;;;6210632;23;20500;-68
2021/11/28 00:17:28;;;;;;;1.60;1.33;;;15.40;99.90;;;;;;6207981;23;20823;-69
2021/11/28 00:20:02;;;;;;;1.53;1.40;;;15.40;99.90;;;;;;6209441;23;20416;-69
2021/11/28 00:22:32;;;;;;;1.50;1.40;;;15.40;99.90;;;;;;6210503;23;20409;-69
2021/11/28 00:25:03;;;;;;;1.40;1.30;;;15.40;99.90;;;;;;6209773;23;20419;-68
2021/11/28 00:27:34;;;;;;;1.53;1.43;;;15.40;99.90;;;;;;6208969;23;20944;-69
2021/11/28 00:30:07;;;;;;;2.60;1.47;;;15.40;99.90;;;;;;6208066;23;20413;-69
2021/11/28 00:32:38;;;;;;;1.37;1.27;;;15.40;99.90;;;;;;6210053;23;20419;-69
2021/11/28 00:35:11;;;;;;;1.80;1.70;;;15.50;99.90;;;;;;6207231;23;20412;-68
2021/11/28 00:37:42;;;;;;;1.70;1.60;;;15.50;99.90;;;;;;6209955;23;20413;-69
2021/11/28 00:40:14;;;;;;;1.37;1.27;;;15.50;99.90;;;;;;6207854;23;20415;-69
2021/11/28 00:42:44;;;;;;;1.70;1.60;;;15.50;99.90;;;;;;6208299;23;20409;-69
2021/11/28 00:45:15;;;;;;;1.37;1.27;;;15.50;99.90;;;;;;6209059;23;20436;-68
2021/11/28 00:47:46;;;;;;;1.53;1.50;;;15.50;99.90;;;;;;6212039;23;20523;-68
2021/11/28 00:50:26;;;;;;;1.77;1.67;;;15.50;99.90;;;;;;6196961;23;20423;-68
2021/11/28 00:52:57;;;;;;;1.67;1.57;;;15.50;99.90;;;;;;6208137;23;20445;-69
2021/11/28 00:55:28;;;;;;;1.63;1.53;;;15.60;99.90;;;;;;6211667;23;20413;-68
2021/11/28 00:57:59;;;;;;;1.67;1.37;;;15.60;99.90;;;;;;6209886;23;20909;-67
2021/11/28 01:00:29;;;;;;;1.53;1.43;;;15.60;99.90;;;;;;6206005;23;20769;-69
2021/11/28 01:03:00;;;;;;;1.87;1.47;;;15.60;99.90;;;;;;6209230;23;20497;-67
2021/11/28 01:05:33;;;;;;;1.70;1.60;;;15.60;99.90;;;;;;6211692;23;20413;-67
2021/11/28 01:08:04;;;;;;;1.80;1.70;;;15.60;99.90;;;;;;6209818;23;20913;-68
2021/11/28 01:10:35;;;;;;;1.73;1.63;;;15.70;99.90;;;;;;6205825;23;20409;-68
2021/11/28 01:13:06;;;;;;;2.10;1.90;;;15.70;99.90;;;;;;6210130;23;20413;-68
2021/11/28 01:15:37;;;;;;;1.83;1.60;;;15.70;99.90;;;;;;6207819;23;20413;-69
2021/11/28 01:18:08;;;;;;;1.53;1.43;;;15.70;99.90;;;;;;6207119;23;20419;-68
2021/11/28 01:20:40;;;;;;;1.60;1.50;;;15.70;99.90;;;;;;6209434;23;20442;-69
2021/11/28 01:23:11;;;;;;;1.80;1.70;;;15.70;99.90;;;;;;6209792;23;20428;-68
2021/11/28 01:25:41;;;;;;;2.40;2.20;;;15.70;99.90;;;;;;6209103;23;20409;-69
2021/11/28 01:28:12;;;;;;;2.83;2.63;;;15.70;99.90;;;;;;6208846;23;20694;-69
2021/11/28 01:30:43;;;;;;;2.30;2.10;;;15.80;99.90;;;;;;6203554;23;20752;-70
2021/11/28 01:33:14;;;;;;;5.53;2.80;;;15.80;99.90;;;;;;6209419;23;20409;-70
2021/11/28 01:35:46;;;;;;;2.23;2.13;;;15.80;99.90;;;;;;6208669;23;20427;-68
2021/11/28 01:38:19;;;;;;;3.77;3.43;;;15.80;99.90;;;;;;6206711;23;20420;-66
2021/11/28 01:40:53;;;;;;;3.10;2.90;;;15.70;99.90;;;;;;6211967;23;20472;-69
2021/11/28 01:43:24;;;;;;;4.70;4.40;;;15.80;99.90;;;;;;6209361;23;20437;-69
2021/11/28 01:45:56;;;;;;;2.77;2.57;;;15.80;99.90;;;;;;6207221;23;20408;-69
2021/11/28 01:48:27;;;;;;;3.07;2.87;;;15.80;99.90;;;;;;6208676;23;20455;-68
2021/11/28 01:51:02;;;;;;;1.73;1.63;;;15.90;99.90;;;;;;6211950;23;20423;-68
2021/11/28 01:53:34;;;;;;;3.30;1.70;;;15.90;99.90;;;;;;6208832;23;20417;-68
2021/11/28 01:56:05;;;;;;;1.40;1.30;;;15.90;99.90;;;;;;6211543;23;20931;-70
2021/11/28 01:58:38;;;;;;;1.50;1.40;;;15.90;99.90;;;;;;6209444;23;20440;-69
2021/11/28 02:01:12;;;;;;;1.70;1.60;;;15.90;99.90;;;;;;6207566;23;20409;-70
2021/11/28 02:03:45;;;;;;;1.40;1.40;;;15.90;99.90;;;;;;6208760;23;20489;-68
2021/11/28 02:06:20;;;;;;;2.07;1.50;;;15.90;99.90;;;;;;6209991;23;20427;-69
2021/11/28 02:08:52;;;;;;;1.63;1.53;;;15.90;99.90;;;;;;6204549;23;20942;-69
2021/11/28 02:11:24;;;;;;;1.33;1.23;;;15.90;99.90;;;;;;6207291;23;20420;-69
2021/11/28 02:13:55;;;;;;;1.80;1.70;;;16.00;99.90;;;;;;6209224;23;20401;-68
2021/11/28 02:16:26;;;;;;;1.30;1.20;;;16.00;99.90;;;;;;6207574;23;20447;-70
2021/11/28 02:18:56;;;;;;;2.27;1.30;;;16.00;99.90;;;;;;6206373;23;20421;-69
2021/11/28 02:21:29;;;;;;;1.60;1.50;;;16.00;99.90;;;;;;6209509;23;20384;-71
2021/11/28 02:24:01;;;;;;;1.73;1.00;;;16.00;99.90;;;;;;6208502;23;20929;-69
2021/11/28 02:26:32;;;;;;;1.40;1.30;;;16.00;99.90;;;;;;6209428;23;20401;-69
2021/11/28 02:29:04;;;;;;;1.60;1.50;;;16.00;99.90;;;;;;6209048;23;20516;-69
2021/11/28 02:31:37;;;;;;;2.20;2.00;;;16.00;99.90;;;;;;6207039;23;20415;-67
2021/11/28 02:34:08;;;;;;;2.07;1.87;;;16.00;99.90;;;;;;6208506;23;20412;-68
2021/11/28 02:36:41;;;;;;;1.90;1.80;;;16.10;99.90;;;;;;6208225;23;20848;-67
2021/11/28 02:39:12;;;;;;;2.10;2.00;;;16.10;99.90;;;;;;6208615;23;20416;-67
2021/11/28 02:41:44;;;;;;;2.27;2.17;;;16.10;99.90;;;;;;6211245;23;20409;-68
2021/11/28 02:44:16;;;;;;;1.80;1.70;;;16.20;99.90;;;;;;6208882;23;20432;-69
2021/11/28 02:46:47;;;;;;;2.00;1.90;;;16.20;99.90;;;;;;6208678;23;20417;-69
2021/11/28 02:49:18;;;;;;;1.80;1.70;;;16.20;99.90;;;;;;6205826;23;20436;-68
2021/11/28 02:51:51;;;;;;;2.17;1.97;;;16.20;99.90;;;;;;6206438;23;20523;-69
2021/11/28 02:54:22;;;;;;;1.60;1.40;;;16.20;99.90;;;;;;6210714;23;20504;-69
2021/11/28 02:56:53;;;;;;;1.57;1.47;;;16.20;99.90;;;;;;6199104;23;20440;-70
2021/11/28 02:59:24;;;;;;;1.27;1.17;;;16.20;99.90;;;;;;6207001;23;20419;-71
2021/11/28 03:01:55;;;;;;;2.60;1.60;;;16.20;99.90;;;;;;6204006;23;20409;-70
2021/11/28 03:04:26;;;;;;;1.57;1.47;;;16.20;99.90;;;;;;6207895;23;20409;-68
2021/11/28 03:06:58;;;;;;;1.10;1.10;;;16.20;99.90;;;;;;6206565;23;20409;-69
2021/11/28 03:09:30;;;;;;;1.53;1.00;;;16.30;99.90;;;;;;6205504;23;21081;-69
2021/11/28 03:12:02;;;;;;;1.77;1.20;;;16.30;99.90;;;;;;6206716;23;20416;-71
2021/11/28 03:14:34;;;;;;;1.13;1.13;;;16.30;99.90;;;;;;6208515;23;20786;-70
2021/11/28 03:17:05;;;;;;;1.40;1.30;;;16.30;99.90;;;;;;6210767;23;20451;-71
2021/11/28 03:19:36;;;;;;;1.33;1.23;;;16.30;99.90;;;;;;6208716;23;20424;-73
2021/11/28 03:22:09;;;;;;;1.43;1.33;;;16.20;99.90;;;;;;6209434;23;20412;-77
2021/11/28 03:24:40;;;;;;;1.43;1.27;;;16.30;99.90;;;;;;6207662;23;20984;-74
2021/11/28 03:27:12;;;;;;;1.33;1.27;;;16.30;99.90;;;;;;6211443;23;20409;-72
2021/11/28 03:29:47;;;;;;;1.30;1.20;;;16.30;99.90;;;;;;6209419;23;20413;-72
2021/11/28 03:32:18;;;;;;;1.53;1.43;;;16.30;99.90;;;;;;6206610;23;20416;-72
2021/11/28 03:34:49;;;;;;;1.60;1.50;;;16.30;99.90;;;;;;6206702;23;20412;-72
2021/11/28 03:37:21;;;;;;;1.40;1.33;;;16.30;99.90;;;;;;6207875;23;20974;-73
2021/11/28 03:39:52;;;;;;;1.70;1.60;;;16.30;99.90;;;;;;6208404;23;20416;-72
2021/11/28 03:42:23;;;;;;;1.80;1.70;;;16.30;99.90;;;;;;6209007;23;20431;-71
2021/11/28 03:44:54;;;;;;;2.20;2.10;;;16.30;99.90;;;;;;6210793;23;20437;-73
2021/11/28 03:47:25;;;;;;;3.43;3.13;;;16.30;99.90;;;;;;6208633;23;20405;-71
2021/11/28 03:49:56;;;;;;;2.67;2.47;;;16.30;99.90;;;;;;6204004;23;20409;-73
2021/11/28 03:52:28;;;;;;;1.80;1.70;;;16.30;99.90;;;;;;6204647;23;20790;-71
2021/11/28 03:54:59;;;;;;;1.70;1.60;;;16.30;99.90;;;;;;6206092;23;20943;-73
2021/11/28 03:57:30;;;;;;;1.80;1.60;;;16.30;99.90;;;;;;6207083;23;20932;-73
2021/11/28 04:00:03;;;;;;;1.10;1.10;;;16.30;99.90;;;;;;6204171;23;20409;-73
2021/11/28 04:02:36;;;;;;;1.13;1.13;;;16.30;99.90;;;;;;6207036;23;20435;-75
2021/11/28 04:05:11;;;;;;;1.50;1.40;;;16.30;99.90;;;;;;6206070;23;20503;-72
2021/11/28 04:07:43;;;;;;;1.67;1.57;;;16.30;99.90;;;;;;6208875;23;20411;-73
2021/11/28 04:10:14;;;;;;;1.60;1.37;;;16.30;99.90;;;;;;6203972;23;20819;-73
2021/11/28 04:12:45;;;;;;;1.70;1.30;;;16.30;99.90;;;;;;6210710;23;20409;-73
2021/11/28 04:15:16;;;;;;;1.50;1.40;;;16.30;99.90;;;;;;6206453;23;20511;-73
2021/11/28 04:17:47;;;;;;;1.10;1.00;;;16.30;99.90;;;;;;6210439;23;20447;-71
2021/11/28 04:20:18;;;;;;;1.50;1.30;;;16.20;99.90;;;;;;6205350;23;20415;-71
2021/11/28 04:22:50;;;;;;;1.30;1.20;;;16.30;99.90;;;;;;6210212;23;20408;-71
2021/11/28 04:25:21;;;;;;;1.63;1.53;;;16.30;99.90;;;;;;6207778;23;20763;-72
2021/11/28 04:27:52;;;;;;;2.70;1.60;;;16.30;99.90;;;;;;6200382;23;20405;-71
2021/11/28 04:30:23;;;;;;;0.80;0.80;;;16.30;99.90;;;;;;6204244;23;20738;-72
2021/11/28 04:32:54;;;;;;;0.80;0.80;;;16.30;99.90;;;;;;6205390;23;20437;-71
2021/11/28 04:35:25;;;;;;;0.90;0.90;;;16.40;99.90;;;;;;6211924;23;20416;-72
2021/11/28 04:37:58;;;;;;;1.03;0.83;;;16.40;99.90;;;;;;6210399;23;20519;-72
2021/11/28 04:40:29;;;;;;;1.37;0.90;;;16.40;99.90;;;;;;6202999;23;20409;-72
2021/11/28 04:43:00;;;;;;;1.00;1.00;;;16.40;99.90;;;;;;6212561;23;20413;-72
2021/11/28 04:45:31;;;;;;;1.10;1.00;;;16.40;99.90;;;;;;6210183;23;20438;-73
2021/11/28 04:48:01;;;;;;;0.90;0.90;;;16.40;99.90;;;;;;6209924;23;20406;-73
2021/11/28 04:50:32;;;;;;;1.53;1.00;;;16.40;99.90;;;;;;6211930;23;20787;-72
2021/11/28 04:53:04;;;;;;;0.80;0.80;;;16.40;99.90;;;;;;6208068;23;20415;-71
2021/11/28 04:55:35;;;;;;;1.50;0.97;;;16.30;99.90;;;;;;6211521;23;20435;-72
2021/11/28 04:58:09;;;;;;;1.10;1.00;;;16.40;99.90;;;;;;6208197;23;20445;-71
2021/11/28 05:00:42;;;;;;;0.97;0.97;;;16.40;99.90;;;;;;6210384;23;20416;-72
2021/11/28 05:03:18;;;;;;;2.77;1.00;;;16.40;99.90;;;;;;6210152;23;20937;-72
2021/11/28 05:05:49;;;;;;;0.83;0.80;;;16.40;99.90;;;;;;6212409;23;20417;-73
2021/11/28 05:08:22;;;;;;;0.80;0.80;;;16.50;99.90;;;;;;6207563;23;20404;-72
2021/11/28 05:10:53;;;;;;;1.10;1.00;;;16.50;99.90;;;;;;6209614;23;20409;-72
2021/11/28 05:13:24;;;;;;;1.00;0.90;;;16.50;99.90;;;;;;6211683;23;20434;-72
2021/11/28 05:15:57;;;;;;;0.80;0.70;;;16.40;99.90;;;;;;6211001;23;20472;-74
2021/11/28 05:18:30;;;;;;;0.60;0.60;;;16.40;99.90;;;;;;6209869;23;20471;-71
2021/11/28 05:21:01;;;;;;;1.33;0.80;;;16.40;99.90;;;;;;6208100;23;20428;-72
2021/11/28 05:23:34;;;;;;;0.80;0.80;;;16.50;99.90;;;;;;6212810;23;20507;-71
2021/11/28 05:26:05;;;;;;;1.27;1.17;;;16.50;99.90;;;;;;6209907;23;20420;-71
2021/11/28 05:28:37;;;;;;;1.23;0.80;;;16.50;99.90;;;;;;6210693;23;20409;-69
2021/11/28 05:31:11;;;;;;;0.80;0.80;;;16.50;99.90;;;;;;6207721;23;20419;-70
2021/11/28 05:33:42;;;;;;;1.57;1.00;;;16.50;99.90;;;;;;6209602;23;20420;-71
2021/11/28 05:36:13;;;;;;;1.07;0.93;;;16.50;99.90;;;;;;6212993;23;20503;-70
2021/11/28 05:38:46;;;;;;;1.40;0.80;;;16.50;99.90;;;;;;6204384;23;20451;-69
2021/11/28 05:41:18;;;;;;;0.90;0.90;;;16.50;99.90;;;;;;6205557;23;20512;-69
2021/11/28 05:43:50;;;;;;;1.50;0.77;;;16.50;99.90;;;;;;6211151;23;20472;-70
2021/11/28 05:46:21;;;;;;;0.80;0.80;;;16.50;99.90;;;;;;6207272;23;20539;-69
2021/11/28 05:48:52;;;;;;;0.90;0.90;;;16.50;99.90;;;;;;6206675;23;20405;-70
2021/11/28 05:51:23;;;;;;;0.60;0.60;;;16.50;99.90;;;;;;6207490;23;20415;-69
2021/11/28 05:53:55;;;;;;;1.00;1.00;;;16.50;99.90;;;;;;6204476;23;20413;-70
2021/11/28 05:56:26;;;;;;;0.93;0.83;;;16.50;99.90;;;;;;6210459;23;20412;-69
2021/11/28 05:58:57;;;;;;;1.23;1.00;;;16.50;99.90;;;;;;6206933;23;20440;-70
2021/11/28 06:01:28;;;;;;;1.53;0.80;;;16.50;99.90;;;;;;6207466;23;20935;-69
2021/11/28 06:03:59;;;;;;;0.70;0.70;;;16.50;99.90;;;;;;6210990;23;20425;-69
2021/11/28 06:06:30;;;;;;;0.60;0.60;;;16.50;99.90;;;;;;6207551;23;20428;-70
2021/11/28 06:09:02;;;;;;;0.90;0.87;;;16.50;99.90;;;;;;6206872;23;20405;-68
2021/11/28 06:11:33;;;;;;;1.10;1.00;;;16.50;99.90;;;;;;6208763;23;20484;-70
2021/11/28 06:14:04;;;;;;;0.80;0.80;;;16.50;99.90;;;;;;6206650;23;20778;-70
2021/11/28 06:16:35;;;;;;;1.10;1.00;;;16.50;99.90;;;;;;6209108;23;20924;-71
2021/11/28 06:19:06;;;;;;;1.03;0.83;;;16.50;99.90;;;;;;6205945;23;20441;-70
2021/11/28 06:21:37;;;;;;;1.00;0.60;;;16.50;99.90;;;;;;6209189;23;20431;-71
2021/11/28 06:24:10;;;;;;;0.70;0.70;;;16.50;99.90;;;;;;6205774;23;20425;-72
2021/11/28 06:26:41;;;;;;;0.73;0.73;;;16.50;99.90;;;;;;6210988;23;20733;-72
2021/11/28 06:29:12;;;;;;;0.70;0.70;;;16.60;99.90;;;;;;6206685;23;20925;-72
2021/11/28 06:31:43;;;;;;;0.67;0.67;;;16.60;99.90;;;;;;6207272;23;20431;-71
2021/11/28 06:34:13;;;;;;;0.97;0.73;;;16.60;99.90;;;;;;6208180;23;20435;-71
2021/11/28 06:36:44;;;;;;;1.50;0.67;;;16.60;99.90;;;;;;6211225;23;20421;-70
2021/11/28 06:39:17;;;;;;;0.80;0.80;;;16.60;99.90;;;;;;6206466;23;20451;-70
2021/11/28 06:41:48;;;;;;;0.60;0.60;;;16.60;99.90;;;;;;6207207;23;20409;-71
2021/11/28 06:44:18;;;;;;;0.80;0.63;;;16.50;99.90;;;;;;6208826;23;20433;-71
2021/11/28 06:46:49;;;;;;;0.70;0.60;;;16.50;99.90;;;;;;6208680;23;20413;-71
2021/11/28 06:49:20;;;;;;;0.50;0.50;;;16.50;99.90;;;;;;6205667;23;20421;-71
2021/11/28 06:51:51;;;;;;;0.70;0.60;;;16.30;99.90;;;;;;6208793;23;20417;-72
2021/11/28 06:54:24;;;;;;;0.63;0.63;;;16.30;99.90;;;;;;6208516;23;20415;-71
2021/11/28 06:56:55;;;;;;;1.27;0.67;;;16.20;99.90;;;;;;6208977;23;20417;-71
2021/11/28 06:59:26;;;;;;;0.60;0.50;;;16.20;99.90;;;;;;6204545;23;20441;-71
2021/11/28 07:01:57;;;;;;;1.23;0.90;;;16.30;99.90;;;;;;6208677;23;21094;-70
2021/11/28 07:04:28;;;;;;;0.67;0.57;;;16.30;99.90;;;;;;6208096;23;20503;-71
2021/11/28 07:06:59;;;;;;;0.97;0.50;;;16.20;99.90;;;;;;6212144;23;20413;-71
2021/11/28 07:09:32;;;;;;;0.80;0.73;;;16.10;99.90;;;;;;6206256;23;20648;-71
2021/11/28 07:12:03;;;;;;;0.70;0.60;;;16.10;99.90;;;;;;6208379;23;20935;-72
2021/11/28 07:14:38;;;;;;;0.63;0.63;;;16.10;99.90;;;;;;6211049;23;20397;-71
2021/11/28 07:17:10;;;;;;;0.90;0.70;;;16.00;99.90;;;;;;6204558;23;20423;-71
2021/11/28 07:19:41;;;;;;;0.67;0.67;;;15.90;99.90;;;;;;6208054;23;20444;-71
2021/11/28 07:22:12;;;;;;;2.00;0.80;;;15.90;99.90;;;;;;6206890;23;20409;-72
2021/11/28 07:24:45;;;;;;;0.73;0.73;;;15.80;99.90;;;;;;6210327;23;20436;-72
2021/11/28 07:27:16;;;;;;;0.87;0.87;;;15.80;99.90;;;;;;6207582;23;20413;-72
2021/11/28 07:29:47;;;;;;;0.80;0.80;;;15.80;99.90;;;;;;6208593;23;20785;-71
2021/11/28 07:32:18;;;;;;;0.60;0.60;;;15.80;99.90;;;;;;6208081;23;20869;-72
2021/11/28 07:34:49;;;;;;;0.60;0.60;;;15.80;99.90;;;;;;6205209;23;20413;-71
2021/11/28 07:37:20;;;;;;;1.50;0.80;;;15.70;99.90;;;;;;6208740;23;20420;-72
2021/11/28 07:39:54;;;;;;;0.50;0.50;;;15.70;99.90;;;;;;6206214;23;20555;-72
2021/11/28 07:42:28;;;;;;;1.40;0.80;;;15.60;99.90;;;;;;6208705;23;20886;-72
2021/11/28 07:45:02;;;;;;;0.80;0.80;;;15.60;99.90;;;;;;6208281;23;20805;-72
2021/11/28 07:47:39;;;;;;;0.70;0.70;;;15.60;99.90;;;;;;6204583;23;20491;-72
2021/11/28 07:50:13;;;;;;;1.00;0.80;;;15.60;99.90;;;;;;6207494;23;20420;-72
2021/11/28 07:52:44;;;;;;;1.13;1.03;;;15.50;99.90;;;;;;6208935;23;20431;-72
2021/11/28 07:55:19;;;;;;;0.73;0.73;;;15.50;99.90;;;;;;6209920;23;20499;-72
2021/11/28 07:57:50;;;;;;;2.10;0.80;;;15.50;99.90;;;;;;6206434;23;20434;-72
2021/11/28 08:00:24;;;;;;;0.90;0.90;;;15.50;99.90;;;;;;6188099;23;20441;-72
2021/11/28 08:03:01;;;;;;;3.03;1.30;;;15.40;99.90;;;;;;6208488;23;20496;-72
2021/11/28 08:05:32;;;;;;;0.80;0.80;;;15.50;99.90;;;;;;6207865;23;20415;-72
2021/11/28 08:08:06;;;;;;;0.63;0.63;;;15.40;99.90;;;;;;6209496;23;20416;-72
2021/11/28 08:10:39;;;;;;;0.70;0.70;;;15.50;99.90;;;;;;6211998;23;20429;-72
2021/11/28 08:13:10;;;;;;;1.40;1.30;;;15.50;99.90;;;;;;6206451;23;20789;-72
2021/11/28 08:15:43;;;;;;;0.60;0.60;;;15.40;99.90;;;;;;6211267;23;20417;-72
2021/11/28 08:18:14;;;;;;;1.73;0.80;;;15.50;99.90;;;;;;6208602;23;20409;-71
2021/11/28 08:20:49;;;;;;;0.73;0.73;;;15.50;99.90;;;;;;6208136;23;20444;-72
2021/11/28 08:23:25;;;;;;;0.83;0.60;;;15.50;99.90;;;;;;6207819;23;20409;-71
2021/11/28 08:25:57;;;;;;;0.80;0.80;;;15.40;99.90;;;;;;6212233;23;20415;-70
2021/11/28 08:28:31;;;;;;;0.70;0.53;;;15.50;99.90;;;;;;6210419;23;20408;-71
2021/11/28 08:31:02;;;;;;;0.50;0.50;;;15.40;99.90;;;;;;6208175;23;20413;-71
2021/11/28 08:33:38;;;;;;;0.70;0.70;;;15.40;99.90;;;;;;6209309;23;20416;-71
2021/11/28 08:36:09;;;;;;;0.90;0.70;;;15.40;99.90;;;;;;6207679;23;20409;-72
2021/11/28 08:38:43;;;;;;;0.60;0.60;;;15.30;99.90;;;;;;6209573;23;20748;-71
2021/11/28 08:41:22;;;;;;;0.80;0.80;;;15.30;99.90;;;;;;6209912;23;20447;-72
2021/11/28 08:43:55;;;;;;;0.70;0.70;;;15.20;99.90;;;;;;6211758;23;20436;-71
2021/11/28 08:46:27;;;;;;;0.70;0.70;;;15.20;99.90;;;;;;6208403;23;20409;-71
2021/11/28 08:49:01;;;;;;;1.17;0.80;;;15.20;99.90;;;;;;6208622;23;20412;-71
2021/11/28 08:51:32;;;;;;;0.63;0.63;;;15.20;99.90;;;;;;6209817;23;20420;-72
2021/11/28 08:54:06;;;;;;;0.70;0.70;;;15.20;99.90;;;;;;6207152;23;20409;-71
2021/11/28 08:56:41;;;;;;;0.70;0.70;;;15.20;99.90;;;;;;6207418;23;20528;-72
2021/11/28 08:59:13;;;;;;;0.70;0.70;;;15.20;99.90;;;;;;6207718;23;20495;-72
2021/11/28 09:01:44;;;;;;;0.80;0.73;;;15.30;99.90;;;;;;6209691;23;20445;-72
2021/11/28 09:07:46;;;;;;;2.10;1.67;;;15.20;99.90;;;;;;6200452;23;20932;-73
2021/11/28 09:10:34;;;;;;;1.03;0.80;;;15.20;99.90;;;;;;6208746;23;20417;-72
2021/11/28 09:13:21;;;;;;;1.73;0.80;;;15.10;99.90;;;;;;6212454;23;20453;-71
2021/11/28 09:15:52;;;;;;;1.03;0.80;;;15.10;99.90;;;;;;6210305;23;20484;-72
2021/11/28 09:18:43;;;;;;;0.87;0.87;;;15.10;99.90;;;;;;6207677;23;20436;-71
2021/11/28 09:21:16;;;;;;;1.83;0.90;;;15.10;99.90;;;;;;6211859;23;20524;-71
2021/11/28 09:26:35;;;;;;;0.90;0.90;;;15.10;99.90;;;;;;6210167;23;20911;-72
2021/11/28 09:29:08;;;;;;;2.50;0.73;;;15.10;99.90;;;;;;6209393;23;20426;-72
2021/11/28 09:31:42;;;;;;;1.00;0.77;;;15.10;99.90;;;;;;6204900;23;20480;-72
2021/11/28 09:34:13;;;;;;;2.07;0.80;;;15.00;99.90;;;;;;6209411;23;20429;-72
2021/11/28 09:36:44;;;;;;;0.73;0.60;;;14.90;99.90;;;;;;6210128;23;20409;-72
2021/11/28 09:39:15;;;;;;;0.80;0.80;;;14.90;99.90;;;;;;6209044;23;20413;-72
2021/11/28 09:42:04;;;;;;;0.93;0.70;;;14.90;99.90;;;;;;6209742;23;20449;-74
2021/11/28 09:44:43;;;;;;;1.23;0.73;;;14.80;99.90;;;;;;6209530;23;20433;-73
2021/11/28 09:47:14;;;;;;;1.50;0.80;;;14.90;99.90;;;;;;6209458;23;20488;-73
2021/11/28 09:49:46;;;;;;;0.70;0.70;;;14.90;99.90;;;;;;6209313;23;20496;-76
2021/11/28 09:52:21;;;;;;;0.70;0.50;;;14.80;99.90;;;;;;6206006;23;20865;-74
2021/11/28 09:54:59;;;;;;;0.70;0.70;;;14.80;99.90;;;;;;6209439;23;20408;-74
2021/11/28 09:57:30;;;;;;;0.60;0.60;;;14.80;99.90;;;;;;6207488;23;20892;-72
2021/11/28 10:00:04;;;;;;;1.20;0.60;;;14.70;99.90;;;;;;6208079;23;20409;-73
2021/11/28 10:02:36;;;;;;;0.50;0.43;;;14.70;99.90;;;;;;6210226;23;20413;-72
2021/11/28 10:05:09;;;;;;;1.33;0.73;;;14.70;99.90;;;;;;6209220;23;20409;-72
2021/11/28 10:07:42;;;;;;;1.00;0.90;;;14.70;99.90;;;;;;6209962;23;20413;-73
2021/11/28 10:10:15;;;;;;;0.60;0.60;;;14.60;99.90;;;;;;6207188;23;20500;-76
2021/11/28 10:12:50;;;;;;;0.83;0.70;;;14.60;99.90;;;;;;6212136;23;20409;-75
2021/11/28 10:15:25;;;;;;;0.60;0.60;;;14.70;99.90;;;;;;6213659;23;20483;-72
2021/11/28 10:17:56;;;;;;;0.97;0.87;;;14.70;99.90;;;;;;6208345;23;20397;-72
2021/11/28 10:20:31;;;;;;;0.50;0.50;;;14.70;99.90;;;;;;6213250;23;20768;-72
2021/11/28 10:23:01;;;;;;;0.90;0.90;;;14.70;99.90;;;;;;6204969;23;20940;-72
2021/11/28 10:25:33;;;;;;;1.07;0.80;;;14.60;99.90;;;;;;6209408;23;20801;-73
2021/11/28 10:28:05;;;;;;;0.90;0.70;;;14.60;99.90;;;;;;6207430;23;20698;-72
2021/11/28 10:30:40;;;;;;;0.70;0.50;;;14.50;99.90;;;;;;6205104;23;20425;-75
2021/11/28 10:33:13;;;;;;;0.70;0.70;;;14.50;99.90;;;;;;6208581;23;20491;-73
2021/11/28 10:36:02;;;;;;;0.63;0.60;;;14.50;99.90;;;;;;6209655;23;20478;-72
2021/11/28 10:38:41;;;;;;;0.67;0.60;;;14.50;99.90;;;;;;6208862;23;20517;-72
2021/11/28 10:41:30;;;;;;;0.80;0.70;;;14.50;99.90;;;;;;6206452;23;20539;-73
2021/11/28 10:44:01;;;;;;;0.70;0.60;;;14.50;99.90;;;;;;6206378;23;20437;-72
2021/11/28 10:46:34;;;;;;;1.13;0.60;;;14.50;99.90;;;;;;6210265;23;20492;-74
2021/11/28 10:49:08;;;;;;;1.43;0.80;;;14.40;99.90;;;;;;6208037;23;20471;-73
2021/11/28 10:51:40;;;;;;;0.57;0.50;;;14.30;99.90;;;;;;6212193;23;20405;-73
2021/11/28 10:54:30;;;;;;;0.80;0.60;;;14.30;99.90;;;;;;6213594;23;20484;-77
2021/11/28 10:57:19;;;;;;;0.60;0.60;;;14.20;99.90;;;;;;6208682;23;20435;-72
2021/11/28 10:59:59;;;;;;;6.20;1.27;;;14.20;99.90;;;;;;6211246;23;20512;-74
2021/11/28 11:02:34;;;;;;;0.60;0.60;;;14.20;99.90;;;;;;6209373;23;20917;-72
2021/11/28 11:05:09;;;;;;;1.93;0.67;;;14.20;99.90;;;;;;6206226;23;20408;-72
2021/11/28 11:07:56;;;;;;;0.70;0.70;;;14.20;99.90;;;;;;6208978;23;20409;-76
2021/11/28 11:10:29;;;;;;;1.53;0.70;;;14.20;99.90;;;;;;6208339;23;20507;-75
2021/11/28 11:13:01;;;;;;;1.33;0.77;;;14.20;99.90;;;;;;6210841;23;20405;-75
2021/11/28 11:15:37;;;;;;;0.63;0.63;;;14.20;99.90;;;;;;6208603;23;20748;-73
2021/11/28 11:18:11;;;;;;;1.20;0.90;;;14.20;99.90;;;;;;6212002;23;20830;-72
2021/11/28 11:20:43;;;;;;;1.27;1.17;;;14.10;99.90;;;;;;6209419;23;20757;-72
2021/11/28 11:23:35;;;;;;;1.20;1.07;;;14.00;99.90;;;;;;6209749;23;20491;-72
2021/11/28 11:26:18;;;;;;;0.63;0.63;;;14.00;99.90;;;;;;6208925;23;20515;-73
2021/11/28 11:29:08;;;;;;;0.67;0.60;;;14.00;99.90;;;;;;6209172;23;20488;-72
2021/11/28 11:31:40;;;;;;;1.10;1.00;;;14.00;99.90;;;;;;6204251;23;20747;-72
2021/11/28 11:34:27;;;;;;;0.70;0.70;;;13.90;99.90;;;;;;6209931;23;20413;-72
2021/11/28 11:37:01;;;;;;;0.67;0.57;;;13.70;99.90;;;;;;6208796;23;20427;-76
2021/11/28 11:39:33;;;;;;;0.70;0.70;;;13.60;99.90;;;;;;6208050;23;20746;-73
2021/11/28 11:42:11;;;;;;;0.77;0.77;;;13.70;99.90;;;;;;6211036;23;20498;-77
2021/11/28 11:44:43;;;;;;;0.80;0.80;;;13.60;99.90;;;;;;6212459;23;20939;-72
2021/11/28 11:47:19;;;;;;;1.60;0.90;;;13.50;99.90;;;;;;6210511;23;20424;-72
2021/11/28 11:49:52;;;;;;;1.23;0.80;;;13.40;99.90;;;;;;6210652;23;20484;-73
2021/11/28 11:52:24;;;;;;;0.77;0.63;;;13.40;99.90;;;;;;6210682;23;20939;-76
2021/11/28 11:54:57;;;;;;;1.40;0.70;;;13.30;99.90;;;;;;6210414;23;21008;-72
2021/11/28 11:57:34;;;;;;;0.87;0.87;;;13.30;99.90;;;;;;6206911;23;20412;-72
2021/11/28 12:00:14;;;;;;;0.60;0.60;;;13.30;99.90;;;;;;6209205;23;20408;-73
2021/11/28 12:02:53;;;;;;;1.43;0.77;;;13.30;99.90;;;;;;6212883;23;20444;-73
2021/11/28 12:05:37;;;;;;;1.33;0.90;;;13.20;99.90;;;;;;6210246;23;20413;-72
2021/11/28 12:08:21;;;;;;;0.70;0.70;;;13.20;99.90;;;;;;6211052;23;20412;-75
2021/11/28 12:11:11;;;;;;;1.37;1.20;;;13.20;99.90;;;;;;6210959;23;20448;-78
2021/11/28 12:14:08;;;;;;;1.07;0.97;;;13.30;99.90;;;;;;6210915;23;20409;-75
2021/11/28 12:16:42;;;;;;;1.30;1.20;;;13.30;99.90;;;;;;6210670;23;20411;-73
2021/11/28 12:19:35;;;;;;;1.10;1.10;;;13.40;99.90;;;;;;6206333;23;20416;-72
2021/11/28 12:22:44;;;;;;;0.83;0.80;;;13.40;99.90;;;;;;6217233;23;20519;-73
2021/11/28 12:25:47;;;;;;;1.03;0.80;;;13.40;99.90;;;;;;6210896;23;20413;-72
2021/11/28 12:28:34;;;;;;;1.70;1.60;;;13.40;99.90;;;;;;6088488;23;20446;-73
2021/11/28 12:31:28;;;;;;;1.70;1.60;;;13.40;99.90;;;;;;6206828;23;20412;-73
2021/11/28 12:34:04;;;;;;;1.40;1.30;;;13.50;99.90;;;;;;6213070;23;20408;-75
2021/11/28 12:36:46;;;;;;;1.60;1.50;;;13.60;99.90;;;;;;6209162;23;20412;-74
2021/11/28 12:39:40;;;;;;;1.40;1.30;;;13.60;99.90;;;;;;6210850;23;20441;-72
2021/11/28 12:42:13;;;;;;;2.13;1.43;;;13.50;99.90;;;;;;6199403;23;20451;-73
2021/11/28 12:45:07;;;;;;;3.10;1.83;;;13.50;99.90;;;;;;6208047;23;20511;-72
2021/11/28 12:47:38;;;;;;;1.37;1.30;;;13.60;99.90;;;;;;6210119;23;20515;-73
2021/11/28 12:50:19;;;;;;;1.40;1.40;;;13.60;99.90;;;;;;6208708;23;20416;-77
2021/11/28 12:52:53;;;;;;;1.50;1.40;;;13.60;99.90;;;;;;6209649;23;20415;-72
2021/11/28 12:55:28;;;;;;;1.60;1.50;;;13.60;99.90;;;;;;6209439;23;20408;-75
2021/11/28 12:58:13;;;;;;;1.40;1.30;;;13.50;99.90;;;;;;6204413;23;20431;-73
2021/11/28 13:00:50;;;;;;;1.43;1.33;;;13.50;99.90;;;;;;6208705;23;20413;-74
2021/11/28 13:03:25;;;;;;;1.27;1.27;;;13.50;99.90;;;;;;6209578;23;20877;-72
2021/11/28 13:05:56;;;;;;;1.30;1.20;;;13.50;99.90;;;;;;6210665;23;20749;-72
2021/11/28 13:08:32;;;;;;;1.40;1.30;;;13.40;99.90;;;;;;6209740;23;20431;-72
2021/11/28 13:11:31;;;;;;;1.50;1.40;;;13.40;99.90;;;;;;6206090;23;20575;-75
2021/11/28 13:14:08;;;;;;;1.80;1.70;;;13.40;99.90;;;;;;6209704;23;20449;-77
2021/11/28 13:16:38;;;;;;;1.37;1.30;;;13.40;99.90;;;;;;6208120;23;20408;-73
2021/11/28 13:19:09;;;;;;;1.57;1.47;;;13.30;99.90;;;;;;6207682;23;20408;-73
2021/11/28 13:21:44;;;;;;;1.40;1.30;;;13.20;99.90;;;;;;6212384;23;20413;-74
2021/11/28 13:24:15;;;;;;;1.70;1.60;;;13.10;99.90;;;;;;6215009;23;20470;-71
2021/11/28 13:26:53;;;;;;;1.40;1.30;;;13.10;99.90;;;;;;6212992;23;20416;-72
2021/11/28 13:29:25;;;;;;;1.30;1.20;;;13.00;99.90;;;;;;6210724;23;20917;-73